Reynard, Texas
Current Conditions -  °F | °C
As of 3:55 AM on Saturday 29 Nov 2014 (Local Time) from KDKR Reporting Station
Haze Haze  
Wind Chill: 57°   Ceiling: Unl
Heat Index: 57°   Visibility: 6mi
Dew Point: 57°   Wind: 7mph
Humidity: 100%   Direction: 180°S
Pressure: 30.09"   Gusts: NA
Location:  31.4982°N, 95.4177°W
Report Text: KDKR 290955Z AUTO 18006KT 6SM BR CLR 14/14 A3009 RMK AO2
Loading
Personal Weather Stations






























Interactive Weather Map New forecast layout! Learn more

10-Day Weather Forecast

Advertisements
Track Severe Weather on mobile